This is the latest recevied weather packets stored in our database for station/object DL9OAC-5. If no packets are shown the sender has not sent any weather packets the latest 10 day(s).
| Time | Temp. | Humidity | Pressure | Rain* | Wind** | Luminosity | Snow |
|---|---|---|---|---|---|---|---|
| 1777301798 | 33.33° C | 20% | 1020.7 hPa | - | - | - | - |
| 1777301498 | 32.78° C | 19% | 1020.7 hPa | - | - | - | - |
| 1777300298 | 36.11° C | 14% | 1021.1 hPa | - | - | - | - |
| 1777299385 | 36.67° C | 15% | 1021.5 hPa | - | - | - | - |
| 1777298785 | 37.22° C | 17% | 1021.4 hPa | - | - | - | - |
| 1777298184 | 36.67° C | 17% | 1021.6 hPa | - | - | - | - |
| 1777297580 | 36.67° C | 18% | 1021.6 hPa | - | - | - | - |
| 1777297280 | 36.11° C | 19% | 1021.6 hPa | - | - | - | - |
| 1777296980 | 36.67° C | 19% | 1021.7 hPa | - | - | - | - |
| 1777296679 | 36.67° C | 19% | 1021.1 hPa | - | - | - | - |
| 1777296379 | 37.22° C | 19% | 1019.4 hPa | - | - | - | - |
| 1777290379 | 26.67° C | 28% | 1018.8 hPa | - | - | - | - |
| 1777290079 | 26.11° C | 29% | 1019.5 hPa | - | - | - | - |
| 1777289779 | 25.56° C | 29% | 1021.8 hPa | - | - | - | - |
| 1777289474 | 25.56° C | 27% | 1022 hPa | - | - | - | - |
| 1777289174 | 26.67° C | 26% | 1021.7 hPa | - | - | - | - |
| 1777288574 | 28.33° C | 30% | 1021.6 hPa | - | - | - | - |
| 1777287974 | 28.33° C | 31% | 1021.7 hPa | - | - | - | - |
| 1777287373 | 27.78° C | 31% | 1021.8 hPa | - | - | - | - |
| 1777287073 | 27.78° C | 30% | 1021.8 hPa | - | - | - | - |
| 1777286773 | 27.78° C | 31% | 1021.9 hPa | - | - | - | - |
| 1777286173 | 27.78° C | 30% | 1021.8 hPa | - | - | - | - |
| 1777285873 | 27.78° C | 31% | 1021.9 hPa | - | - | - | - |
| 1777285572 | 27.22° C | 30% | 1022 hPa | - | - | - | - |
| 1777285272 | 27.22° C | 31% | 1022.1 hPa | - | - | - | - |
* Rain since midnight (hover to see other rain measurements)
** Current wind speed in m/s (hover to see current wind gust speed)